sensor_id;sensor_type;location;lat;lon;timestamp;P1;durP1;ratioP1;P2;durP2;ratioP2
70455;SDS011;57916;51.996;5.180;2023-12-04T00:01:22;19.15;;;9.30;;
70455;SDS011;57916;51.996;5.180;2023-12-04T00:03:49;25.83;;;11.05;;
70455;SDS011;57916;51.996;5.180;2023-12-04T00:06:16;18.55;;;9.20;;
70455;SDS011;57916;51.996;5.180;2023-12-04T00:08:42;27.70;;;11.75;;
70455;SDS011;57916;51.996;5.180;2023-12-04T00:11:09;21.50;;;9.97;;
70455;SDS011;57916;51.996;5.180;2023-12-04T00:13:37;19.93;;;9.40;;
70455;SDS011;57916;51.996;5.180;2023-12-04T00:16:04;20.67;;;9.77;;
70455;SDS011;57916;51.996;5.180;2023-12-04T00:18:32;20.23;;;9.17;;
70455;SDS011;57916;51.996;5.180;2023-12-04T00:20:59;20.08;;;9.95;;
70455;SDS011;57916;51.996;5.180;2023-12-04T00:23:26;21.38;;;10.20;;
70455;SDS011;57916;51.996;5.180;2023-12-04T00:25:54;22.00;;;9.73;;
70455;SDS011;57916;51.996;5.180;2023-12-04T00:28:22;21.60;;;9.77;;
70455;SDS011;57916;51.996;5.180;2023-12-04T00:30:49;23.88;;;10.27;;
70455;SDS011;57916;51.996;5.180;2023-12-04T00:33:16;25.40;;;10.30;;
70455;SDS011;57916;51.996;5.180;2023-12-04T00:35:43;22.33;;;10.60;;
70455;SDS011;57916;51.996;5.180;2023-12-04T00:38:10;24.52;;;10.90;;
70455;SDS011;57916;51.996;5.180;2023-12-04T00:40:37;24.83;;;10.93;;
70455;SDS011;57916;51.996;5.180;2023-12-04T00:43:04;22.95;;;10.95;;
70455;SDS011;57916;51.996;5.180;2023-12-04T00:45:31;25.35;;;12.55;;
70455;SDS011;57916;51.996;5.180;2023-12-04T00:47:58;28.52;;;12.10;;
70455;SDS011;57916;51.996;5.180;2023-12-04T00:50:25;26.80;;;11.70;;
70455;SDS011;57916;51.996;5.180;2023-12-04T00:52:52;26.10;;;12.52;;
70455;SDS011;57916;51.996;5.180;2023-12-04T00:55:19;24.50;;;12.20;;
70455;SDS011;57916;51.996;5.180;2023-12-04T00:57:47;26.63;;;11.82;;
70455;SDS011;57916;51.996;5.180;2023-12-04T01:00:14;25.05;;;11.80;;
70455;SDS011;57916;51.996;5.180;2023-12-04T01:02:41;26.40;;;11.77;;
70455;SDS011;57916;51.996;5.180;2023-12-04T01:05:09;25.92;;;11.43;;
70455;SDS011;57916;51.996;5.180;2023-12-04T01:07:36;24.67;;;11.40;;
70455;SDS011;57916;51.996;5.180;2023-12-04T01:10:03;28.35;;;12.77;;
70455;SDS011;57916;51.996;5.180;2023-12-04T01:12:31;28.58;;;11.82;;
70455;SDS011;57916;51.996;5.180;2023-12-04T01:14:58;28.23;;;12.57;;
70455;SDS011;57916;51.996;5.180;2023-12-04T01:17:25;25.52;;;11.45;;
70455;SDS011;57916;51.996;5.180;2023-12-04T01:19:52;23.95;;;11.73;;
70455;SDS011;57916;51.996;5.180;2023-12-04T01:22:18;25.83;;;12.20;;
70455;SDS011;57916;51.996;5.180;2023-12-04T01:24:45;27.15;;;12.32;;
70455;SDS011;57916;51.996;5.180;2023-12-04T01:27:12;24.40;;;11.73;;
70455;SDS011;57916;51.996;5.180;2023-12-04T01:29:39;25.02;;;11.25;;
70455;SDS011;57916;51.996;5.180;2023-12-04T01:32:06;26.73;;;11.20;;
70455;SDS011;57916;51.996;5.180;2023-12-04T01:34:33;26.40;;;11.50;;
70455;SDS011;57916;51.996;5.180;2023-12-04T01:37:00;25.05;;;11.85;;
70455;SDS011;57916;51.996;5.180;2023-12-04T01:39:27;28.02;;;11.98;;
70455;SDS011;57916;51.996;5.180;2023-12-04T01:41:55;28.05;;;12.02;;
70455;SDS011;57916;51.996;5.180;2023-12-04T01:44:22;23.47;;;10.77;;
70455;SDS011;57916;51.996;5.180;2023-12-04T01:46:49;21.35;;;10.40;;
70455;SDS011;57916;51.996;5.180;2023-12-04T01:49:16;25.85;;;11.23;;
70455;SDS011;57916;51.996;5.180;2023-12-04T01:51:43;26.00;;;11.27;;
70455;SDS011;57916;51.996;5.180;2023-12-04T01:54:12;23.20;;;11.38;;
70455;SDS011;57916;51.996;5.180;2023-12-04T01:56:40;23.63;;;11.45;;
70455;SDS011;57916;51.996;5.180;2023-12-04T01:59:07;23.90;;;10.93;;
70455;SDS011;57916;51.996;5.180;2023-12-04T02:01:34;25.88;;;11.75;;
70455;SDS011;57916;51.996;5.180;2023-12-04T02:04:03;26.30;;;11.27;;
70455;SDS011;57916;51.996;5.180;2023-12-04T02:06:31;26.33;;;11.32;;
70455;SDS011;57916;51.996;5.180;2023-12-04T02:08:58;27.48;;;11.82;;
70455;SDS011;57916;51.996;5.180;2023-12-04T02:11:25;24.67;;;12.02;;
70455;SDS011;57916;51.996;5.180;2023-12-04T02:13:52;24.10;;;12.03;;
70455;SDS011;57916;51.996;5.180;2023-12-04T02:16:19;24.73;;;11.73;;
70455;SDS011;57916;51.996;5.180;2023-12-04T02:18:50;23.70;;;11.33;;
70455;SDS011;57916;51.996;5.180;2023-12-04T02:21:18;27.25;;;11.63;;
70455;SDS011;57916;51.996;5.180;2023-12-04T02:23:51;24.90;;;11.82;;
70455;SDS011;57916;51.996;5.180;2023-12-04T02:26:22;27.20;;;12.00;;
70455;SDS011;57916;51.996;5.180;2023-12-04T02:28:54;24.70;;;11.23;;
70455;SDS011;57916;51.996;5.180;2023-12-04T02:31:25;23.60;;;11.63;;
70455;SDS011;57916;51.996;5.180;2023-12-04T02:33:53;25.85;;;12.45;;
70455;SDS011;57916;51.996;5.180;2023-12-04T02:36:24;25.15;;;11.57;;
70455;SDS011;57916;51.996;5.180;2023-12-04T02:38:53;23.75;;;11.98;;
70455;SDS011;57916;51.996;5.180;2023-12-04T02:41:20;24.63;;;11.55;;
70455;SDS011;57916;51.996;5.180;2023-12-04T02:43:47;26.73;;;12.20;;
70455;SDS011;57916;51.996;5.180;2023-12-04T02:46:14;21.58;;;10.18;;
70455;SDS011;57916;51.996;5.180;2023-12-04T02:48:41;25.80;;;11.55;;
70455;SDS011;57916;51.996;5.180;2023-12-04T02:51:10;22.43;;;10.87;;
70455;SDS011;57916;51.996;5.180;2023-12-04T02:53:37;24.50;;;10.95;;
70455;SDS011;57916;51.996;5.180;2023-12-04T02:56:04;25.48;;;11.52;;
70455;SDS011;57916;51.996;5.180;2023-12-04T02:58:32;25.38;;;11.88;;
70455;SDS011;57916;51.996;5.180;2023-12-04T03:01:00;25.88;;;11.90;;
70455;SDS011;57916;51.996;5.180;2023-12-04T03:03:27;25.23;;;11.50;;
70455;SDS011;57916;51.996;5.180;2023-12-04T03:05:55;26.67;;;11.73;;
70455;SDS011;57916;51.996;5.180;2023-12-04T03:08:22;25.67;;;11.68;;
70455;SDS011;57916;51.996;5.180;2023-12-04T03:10:49;24.50;;;11.75;;
70455;SDS011;57916;51.996;5.180;2023-12-04T03:13:16;25.40;;;11.93;;
70455;SDS011;57916;51.996;5.180;2023-12-04T03:15:43;23.90;;;11.27;;
70455;SDS011;57916;51.996;5.180;2023-12-04T03:18:10;22.63;;;10.65;;
70455;SDS011;57916;51.996;5.180;2023-12-04T03:20:38;26.20;;;11.77;;
70455;SDS011;57916;51.996;5.180;2023-12-04T03:23:05;21.77;;;11.55;;
70455;SDS011;57916;51.996;5.180;2023-12-04T03:25:32;21.60;;;11.20;;
70455;SDS011;57916;51.996;5.180;2023-12-04T03:27:59;21.25;;;10.55;;
70455;SDS011;57916;51.996;5.180;2023-12-04T03:30:26;25.33;;;12.35;;
70455;SDS011;57916;51.996;5.180;2023-12-04T03:32:53;20.93;;;10.30;;
70455;SDS011;57916;51.996;5.180;2023-12-04T03:35:20;23.38;;;11.43;;
70455;SDS011;57916;51.996;5.180;2023-12-04T03:37:47;24.27;;;11.23;;
70455;SDS011;57916;51.996;5.180;2023-12-04T03:40:16;22.92;;;11.60;;
70455;SDS011;57916;51.996;5.180;2023-12-04T03:42:43;25.73;;;11.25;;
70455;SDS011;57916;51.996;5.180;2023-12-04T03:45:10;17.73;;;9.48;;
70455;SDS011;57916;51.996;5.180;2023-12-04T03:47:37;20.85;;;10.38;;
70455;SDS011;57916;51.996;5.180;2023-12-04T03:50:04;19.40;;;10.35;;
70455;SDS011;57916;51.996;5.180;2023-12-04T03:52:32;20.25;;;10.30;;
70455;SDS011;57916;51.996;5.180;2023-12-04T03:54:59;22.60;;;10.18;;
70455;SDS011;57916;51.996;5.180;2023-12-04T03:57:26;17.70;;;9.98;;
70455;SDS011;57916;51.996;5.180;2023-12-04T03:59:53;16.65;;;9.38;;
70455;SDS011;57916;51.996;5.180;2023-12-04T04:02:20;17.50;;;9.35;;
70455;SDS011;57916;51.996;5.180;2023-12-04T04:04:46;17.63;;;9.47;;
70455;SDS011;57916;51.996;5.180;2023-12-04T04:07:15;18.95;;;9.45;;
70455;SDS011;57916;51.996;5.180;2023-12-04T04:09:43;18.80;;;9.38;;
70455;SDS011;57916;51.996;5.180;2023-12-04T04:12:10;17.27;;;9.13;;
70455;SDS011;57916;51.996;5.180;2023-12-04T04:14:37;18.60;;;9.52;;
70455;SDS011;57916;51.996;5.180;2023-12-04T04:17:05;19.42;;;9.07;;
70455;SDS011;57916;51.996;5.180;2023-12-04T04:19:32;18.13;;;9.37;;
70455;SDS011;57916;51.996;5.180;2023-12-04T04:21:59;17.80;;;9.33;;
70455;SDS011;57916;51.996;5.180;2023-12-04T04:24:26;18.83;;;9.00;;
70455;SDS011;57916;51.996;5.180;2023-12-04T04:26:53;16.90;;;9.13;;
70455;SDS011;57916;51.996;5.180;2023-12-04T04:29:20;17.42;;;8.20;;
70455;SDS011;57916;51.996;5.180;2023-12-04T04:31:47;16.35;;;8.80;;
70455;SDS011;57916;51.996;5.180;2023-12-04T04:34:13;17.80;;;9.57;;
70455;SDS011;57916;51.996;5.180;2023-12-04T04:36:42;18.35;;;9.07;;
70455;SDS011;57916;51.996;5.180;2023-12-04T04:39:11;17.10;;;8.60;;
70455;SDS011;57916;51.996;5.180;2023-12-04T04:41:39;17.67;;;9.13;;
70455;SDS011;57916;51.996;5.180;2023-12-04T04:44:06;15.18;;;8.27;;
70455;SDS011;57916;51.996;5.180;2023-12-04T04:46:33;14.00;;;8.27;;
70455;SDS011;57916;51.996;5.180;2023-12-04T04:49:01;14.57;;;8.37;;
70455;SDS011;57916;51.996;5.180;2023-12-04T04:51:28;16.27;;;8.98;;
70455;SDS011;57916;51.996;5.180;2023-12-04T04:53:55;17.08;;;8.40;;
70455;SDS011;57916;51.996;5.180;2023-12-04T04:56:23;12.77;;;7.95;;
70455;SDS011;57916;51.996;5.180;2023-12-04T04:58:49;14.43;;;7.60;;
70455;SDS011;57916;51.996;5.180;2023-12-04T05:01:19;15.03;;;8.60;;
70455;SDS011;57916;51.996;5.180;2023-12-04T05:03:46;16.70;;;9.00;;
70455;SDS011;57916;51.996;5.180;2023-12-04T05:06:13;15.48;;;8.65;;
70455;SDS011;57916;51.996;5.180;2023-12-04T05:08:40;14.00;;;7.93;;
70455;SDS011;57916;51.996;5.180;2023-12-04T05:11:07;14.43;;;7.85;;
70455;SDS011;57916;51.996;5.180;2023-12-04T05:13:34;18.48;;;8.30;;
70455;SDS011;57916;51.996;5.180;2023-12-04T05:16:01;16.00;;;8.38;;
70455;SDS011;57916;51.996;5.180;2023-12-04T05:18:28;16.75;;;8.63;;
70455;SDS011;57916;51.996;5.180;2023-12-04T05:20:55;15.95;;;8.50;;
70455;SDS011;57916;51.996;5.180;2023-12-04T05:23:22;16.75;;;8.77;;
70455;SDS011;57916;51.996;5.180;2023-12-04T05:25:49;13.68;;;8.18;;
70455;SDS011;57916;51.996;5.180;2023-12-04T05:28:16;15.57;;;8.52;;
70455;SDS011;57916;51.996;5.180;2023-12-04T05:30:43;19.70;;;9.15;;
70455;SDS011;57916;51.996;5.180;2023-12-04T05:33:10;15.45;;;8.70;;
70455;SDS011;57916;51.996;5.180;2023-12-04T05:35:37;13.90;;;8.43;;
70455;SDS011;57916;51.996;5.180;2023-12-04T05:38:04;16.20;;;8.32;;
70455;SDS011;57916;51.996;5.180;2023-12-04T05:40:31;17.92;;;9.07;;
70455;SDS011;57916;51.996;5.180;2023-12-04T05:42:58;14.77;;;8.60;;
70455;SDS011;57916;51.996;5.180;2023-12-04T05:45:25;18.40;;;8.93;;
70455;SDS011;57916;51.996;5.180;2023-12-04T05:47:52;15.73;;;9.15;;
70455;SDS011;57916;51.996;5.180;2023-12-04T05:50:19;17.05;;;9.35;;
70455;SDS011;57916;51.996;5.180;2023-12-04T05:52:46;19.55;;;9.45;;
70455;SDS011;57916;51.996;5.180;2023-12-04T05:55:13;18.35;;;9.60;;
70455;SDS011;57916;51.996;5.180;2023-12-04T05:57:40;18.27;;;9.60;;
70455;SDS011;57916;51.996;5.180;2023-12-04T06:00:07;18.17;;;9.18;;
70455;SDS011;57916;51.996;5.180;2023-12-04T06:02:39;17.53;;;9.43;;
70455;SDS011;57916;51.996;5.180;2023-12-04T06:05:07;17.63;;;9.63;;
70455;SDS011;57916;51.996;5.180;2023-12-04T06:07:35;19.70;;;10.20;;
70455;SDS011;57916;51.996;5.180;2023-12-04T06:10:03;19.08;;;9.45;;
70455;SDS011;57916;51.996;5.180;2023-12-04T06:12:31;16.25;;;9.95;;
70455;SDS011;57916;51.996;5.180;2023-12-04T06:14:58;16.23;;;9.38;;
70455;SDS011;57916;51.996;5.180;2023-12-04T06:17:25;16.75;;;10.30;;
70455;SDS011;57916;51.996;5.180;2023-12-04T06:19:53;19.03;;;10.10;;
70455;SDS011;57916;51.996;5.180;2023-12-04T06:22:20;17.67;;;9.67;;
70455;SDS011;57916;51.996;5.180;2023-12-04T06:24:48;16.55;;;9.38;;
70455;SDS011;57916;51.996;5.180;2023-12-04T06:27:16;19.77;;;10.07;;
70455;SDS011;57916;51.996;5.180;2023-12-04T06:29:48;16.88;;;9.38;;
70455;SDS011;57916;51.996;5.180;2023-12-04T06:32:18;17.00;;;9.48;;
70455;SDS011;57916;51.996;5.180;2023-12-04T06:34:46;14.77;;;9.38;;
70455;SDS011;57916;51.996;5.180;2023-12-04T06:37:14;15.70;;;9.10;;
70455;SDS011;57916;51.996;5.180;2023-12-04T06:39:41;14.07;;;8.70;;
70455;SDS011;57916;51.996;5.180;2023-12-04T06:42:11;15.57;;;9.40;;
70455;SDS011;57916;51.996;5.180;2023-12-04T06:44:38;14.55;;;8.48;;
70455;SDS011;57916;51.996;5.180;2023-12-04T06:47:07;15.70;;;9.45;;
70455;SDS011;57916;51.996;5.180;2023-12-04T06:49:35;14.57;;;8.25;;
70455;SDS011;57916;51.996;5.180;2023-12-04T06:52:02;14.43;;;9.07;;
70455;SDS011;57916;51.996;5.180;2023-12-04T06:54:30;15.95;;;9.30;;
70455;SDS011;57916;51.996;5.180;2023-12-04T06:56:57;18.85;;;9.85;;
70455;SDS011;57916;51.996;5.180;2023-12-04T06:59:24;16.83;;;9.30;;
70455;SDS011;57916;51.996;5.180;2023-12-04T07:01:51;15.95;;;9.40;;
70455;SDS011;57916;51.996;5.180;2023-12-04T07:04:18;15.93;;;9.07;;
70455;SDS011;57916;51.996;5.180;2023-12-04T07:06:48;13.25;;;8.10;;
70455;SDS011;57916;51.996;5.180;2023-12-04T07:09:15;15.07;;;8.80;;
70455;SDS011;57916;51.996;5.180;2023-12-04T07:11:45;18.67;;;9.00;;
70455;SDS011;57916;51.996;5.180;2023-12-04T07:14:12;15.00;;;9.13;;
70455;SDS011;57916;51.996;5.180;2023-12-04T07:16:40;15.55;;;8.80;;
70455;SDS011;57916;51.996;5.180;2023-12-04T07:19:09;14.38;;;9.07;;
70455;SDS011;57916;51.996;5.180;2023-12-04T07:21:37;14.18;;;8.98;;
70455;SDS011;57916;51.996;5.180;2023-12-04T07:24:05;14.00;;;8.95;;
70455;SDS011;57916;51.996;5.180;2023-12-04T07:26:33;14.20;;;8.48;;
70455;SDS011;57916;51.996;5.180;2023-12-04T07:29:01;12.25;;;7.93;;
70455;SDS011;57916;51.996;5.180;2023-12-04T07:31:29;15.75;;;8.38;;
70455;SDS011;57916;51.996;5.180;2023-12-04T07:33:57;14.40;;;8.20;;
70455;SDS011;57916;51.996;5.180;2023-12-04T07:36:27;14.13;;;8.70;;
70455;SDS011;57916;51.996;5.180;2023-12-04T07:38:55;12.15;;;7.72;;
70455;SDS011;57916;51.996;5.180;2023-12-04T07:41:22;10.98;;;7.60;;
70455;SDS011;57916;51.996;5.180;2023-12-04T07:43:49;12.80;;;7.93;;
70455;SDS011;57916;51.996;5.180;2023-12-04T07:46:16;16.05;;;8.15;;
70455;SDS011;57916;51.996;5.180;2023-12-04T07:48:43;11.07;;;7.70;;
70455;SDS011;57916;51.996;5.180;2023-12-04T07:51:12;16.38;;;8.25;;
70455;SDS011;57916;51.996;5.180;2023-12-04T07:53:39;11.50;;;7.47;;
70455;SDS011;57916;51.996;5.180;2023-12-04T07:56:07;15.70;;;8.43;;
70455;SDS011;57916;51.996;5.180;2023-12-04T07:58:34;14.32;;;7.55;;
70455;SDS011;57916;51.996;5.180;2023-12-04T08:01:01;10.40;;;7.00;;
70455;SDS011;57916;51.996;5.180;2023-12-04T08:03:28;11.57;;;7.28;;
70455;SDS011;57916;51.996;5.180;2023-12-04T08:05:55;10.93;;;7.38;;
70455;SDS011;57916;51.996;5.180;2023-12-04T08:08:22;10.90;;;7.00;;
70455;SDS011;57916;51.996;5.180;2023-12-04T08:10:50;12.77;;;7.65;;
70455;SDS011;57916;51.996;5.180;2023-12-04T08:13:17;10.63;;;6.87;;
70455;SDS011;57916;51.996;5.180;2023-12-04T08:15:44;12.80;;;7.45;;
70455;SDS011;57916;51.996;5.180;2023-12-04T08:18:11;11.82;;;7.32;;
70455;SDS011;57916;51.996;5.180;2023-12-04T08:20:38;11.63;;;7.30;;
70455;SDS011;57916;51.996;5.180;2023-12-04T08:23:07;9.65;;;6.65;;
70455;SDS011;57916;51.996;5.180;2023-12-04T08:25:34;11.68;;;6.57;;
70455;SDS011;57916;51.996;5.180;2023-12-04T08:28:05;11.68;;;6.93;;
70455;SDS011;57916;51.996;5.180;2023-12-04T08:30:32;11.35;;;7.47;;
70455;SDS011;57916;51.996;5.180;2023-12-04T08:32:59;9.55;;;6.40;;
70455;SDS011;57916;51.996;5.180;2023-12-04T08:35:26;9.65;;;6.20;;
70455;SDS011;57916;51.996;5.180;2023-12-04T08:37:53;11.35;;;7.30;;
70455;SDS011;57916;51.996;5.180;2023-12-04T08:40:21;8.37;;;5.70;;
70455;SDS011;57916;51.996;5.180;2023-12-04T08:42:48;10.88;;;7.15;;
70455;SDS011;57916;51.996;5.180;2023-12-04T08:45:15;9.15;;;6.50;;
70455;SDS011;57916;51.996;5.180;2023-12-04T08:47:45;14.32;;;7.95;;
70455;SDS011;57916;51.996;5.180;2023-12-04T08:50:12;10.77;;;7.05;;
70455;SDS011;57916;51.996;5.180;2023-12-04T08:52:39;10.50;;;6.70;;
70455;SDS011;57916;51.996;5.180;2023-12-04T08:55:08;12.23;;;7.00;;
70455;SDS011;57916;51.996;5.180;2023-12-04T08:57:36;9.30;;;6.40;;
70455;SDS011;57916;51.996;5.180;2023-12-04T09:00:03;13.52;;;6.35;;
70455;SDS011;57916;51.996;5.180;2023-12-04T09:02:31;9.23;;;6.53;;
70455;SDS011;57916;51.996;5.180;2023-12-04T09:04:58;8.23;;;5.90;;
70455;SDS011;57916;51.996;5.180;2023-12-04T09:07:26;10.95;;;6.78;;
70455;SDS011;57916;51.996;5.180;2023-12-04T09:10:13;11.80;;;6.40;;
70455;SDS011;57916;51.996;5.180;2023-12-04T09:12:56;10.98;;;6.50;;
70455;SDS011;57916;51.996;5.180;2023-12-04T09:15:23;7.55;;;5.75;;
70455;SDS011;57916;51.996;5.180;2023-12-04T09:17:50;10.27;;;5.80;;
70455;SDS011;57916;51.996;5.180;2023-12-04T09:20:17;9.65;;;6.82;;
70455;SDS011;57916;51.996;5.180;2023-12-04T09:22:44;10.25;;;6.45;;
70455;SDS011;57916;51.996;5.180;2023-12-04T09:25:18;10.05;;;6.20;;
70455;SDS011;57916;51.996;5.180;2023-12-04T09:27:47;10.52;;;6.25;;
70455;SDS011;57916;51.996;5.180;2023-12-04T09:30:14;8.68;;;5.85;;
70455;SDS011;57916;51.996;5.180;2023-12-04T09:32:41;11.15;;;6.15;;
70455;SDS011;57916;51.996;5.180;2023-12-04T09:35:08;10.07;;;6.18;;
70455;SDS011;57916;51.996;5.180;2023-12-04T09:37:35;10.07;;;6.50;;
70455;SDS011;57916;51.996;5.180;2023-12-04T09:40:02;12.68;;;6.43;;
70455;SDS011;57916;51.996;5.180;2023-12-04T09:42:31;9.45;;;6.35;;
70455;SDS011;57916;51.996;5.180;2023-12-04T09:44:59;7.82;;;6.00;;
70455;SDS011;57916;51.996;5.180;2023-12-04T09:47:28;11.20;;;6.78;;
70455;SDS011;57916;51.996;5.180;2023-12-04T09:49:56;8.93;;;5.80;;
70455;SDS011;57916;51.996;5.180;2023-12-04T09:52:24;8.93;;;6.07;;
70455;SDS011;57916;51.996;5.180;2023-12-04T09:54:53;10.05;;;6.57;;
70455;SDS011;57916;51.996;5.180;2023-12-04T09:57:21;10.00;;;6.95;;
70455;SDS011;57916;51.996;5.180;2023-12-04T09:59:51;12.35;;;6.70;;
70455;SDS011;57916;51.996;5.180;2023-12-04T10:02:19;8.82;;;6.00;;
70455;SDS011;57916;51.996;5.180;2023-12-04T10:04:48;10.27;;;6.55;;
70455;SDS011;57916;51.996;5.180;2023-12-04T10:07:15;9.57;;;6.45;;
70455;SDS011;57916;51.996;5.180;2023-12-04T10:09:42;9.15;;;6.32;;
70455;SDS011;57916;51.996;5.180;2023-12-04T10:12:09;8.93;;;5.93;;
70455;SDS011;57916;51.996;5.180;2023-12-04T10:14:37;9.07;;;6.18;;
70455;SDS011;57916;51.996;5.180;2023-12-04T10:17:13;10.13;;;6.25;;
70455;SDS011;57916;51.996;5.180;2023-12-04T10:19:42;13.63;;;7.75;;
70455;SDS011;57916;51.996;5.180;2023-12-04T10:22:09;9.45;;;6.68;;
70455;SDS011;57916;51.996;5.180;2023-12-04T10:24:37;9.15;;;6.32;;
70455;SDS011;57916;51.996;5.180;2023-12-04T10:27:05;10.10;;;6.57;;
70455;SDS011;57916;51.996;5.180;2023-12-04T10:29:49;9.57;;;6.75;;
70455;SDS011;57916;51.996;5.180;2023-12-04T10:32:18;9.20;;;6.43;;
70455;SDS011;57916;51.996;5.180;2023-12-04T10:34:49;10.60;;;6.72;;
70455;SDS011;57916;51.996;5.180;2023-12-04T10:37:16;13.20;;;6.75;;
70455;SDS011;57916;51.996;5.180;2023-12-04T10:39:49;8.88;;;6.28;;
70455;SDS011;57916;51.996;5.180;2023-12-04T10:42:27;10.77;;;6.70;;
70455;SDS011;57916;51.996;5.180;2023-12-04T10:44:57;9.70;;;6.70;;
70455;SDS011;57916;51.996;5.180;2023-12-04T10:47:24;12.50;;;7.47;;
70455;SDS011;57916;51.996;5.180;2023-12-04T10:49:52;9.70;;;6.43;;
70455;SDS011;57916;51.996;5.180;2023-12-04T10:52:20;11.10;;;6.90;;
70455;SDS011;57916;51.996;5.180;2023-12-04T10:54:48;12.00;;;6.75;;
70455;SDS011;57916;51.996;5.180;2023-12-04T10:57:25;10.00;;;6.90;;
70455;SDS011;57916;51.996;5.180;2023-12-04T10:59:56;9.55;;;6.55;;
70455;SDS011;57916;51.996;5.180;2023-12-04T11:02:25;11.05;;;7.40;;
70455;SDS011;57916;51.996;5.180;2023-12-04T11:04:55;13.60;;;7.50;;
70455;SDS011;57916;51.996;5.180;2023-12-04T11:07:41;9.30;;;6.72;;
70455;SDS011;57916;51.996;5.180;2023-12-04T11:10:36;9.13;;;6.65;;
70455;SDS011;57916;51.996;5.180;2023-12-04T11:13:21;10.25;;;7.22;;
70455;SDS011;57916;51.996;5.180;2023-12-04T11:15:59;11.60;;;7.38;;
70455;SDS011;57916;51.996;5.180;2023-12-04T11:18:30;12.38;;;6.97;;
70455;SDS011;57916;51.996;5.180;2023-12-04T11:21:04;12.70;;;7.72;;
70455;SDS011;57916;51.996;5.180;2023-12-04T11:23:37;11.95;;;7.03;;
70455;SDS011;57916;51.996;5.180;2023-12-04T11:26:06;12.40;;;8.43;;
70455;SDS011;57916;51.996;5.180;2023-12-04T11:28:35;13.57;;;7.75;;
70455;SDS011;57916;51.996;5.180;2023-12-04T11:31:05;16.83;;;7.70;;
70455;SDS011;57916;51.996;5.180;2023-12-04T11:33:36;12.50;;;8.52;;
70455;SDS011;57916;51.996;5.180;2023-12-04T11:36:07;11.93;;;8.20;;
70455;SDS011;57916;51.996;5.180;2023-12-04T11:38:44;8.75;;;6.05;;
70455;SDS011;57916;51.996;5.180;2023-12-04T11:41:19;11.85;;;7.88;;
70455;SDS011;57916;51.996;5.180;2023-12-04T11:43:52;12.77;;;7.80;;
70455;SDS011;57916;51.996;5.180;2023-12-04T11:46:23;12.68;;;7.80;;
70455;SDS011;57916;51.996;5.180;2023-12-04T11:48:55;13.32;;;8.05;;
70455;SDS011;57916;51.996;5.180;2023-12-04T11:54:13;12.10;;;8.55;;
70455;SDS011;57916;51.996;5.180;2023-12-04T11:56:56;12.23;;;8.23;;
70455;SDS011;57916;51.996;5.180;2023-12-04T11:59:23;14.45;;;8.35;;
70455;SDS011;57916;51.996;5.180;2023-12-04T12:01:50;9.45;;;7.03;;
70455;SDS011;57916;51.996;5.180;2023-12-04T12:04:20;15.88;;;8.23;;
70455;SDS011;57916;51.996;5.180;2023-12-04T12:06:47;11.80;;;8.40;;
70455;SDS011;57916;51.996;5.180;2023-12-04T12:09:14;14.15;;;8.93;;
70455;SDS011;57916;51.996;5.180;2023-12-04T12:11:42;14.45;;;8.40;;
70455;SDS011;57916;51.996;5.180;2023-12-04T12:14:09;12.85;;;7.65;;
70455;SDS011;57916;51.996;5.180;2023-12-04T12:16:36;12.07;;;7.53;;
70455;SDS011;57916;51.996;5.180;2023-12-04T12:19:03;13.38;;;8.60;;
70455;SDS011;57916;51.996;5.180;2023-12-04T12:21:31;14.15;;;8.88;;
70455;SDS011;57916;51.996;5.180;2023-12-04T12:23:57;15.65;;;8.52;;
70455;SDS011;57916;51.996;5.180;2023-12-04T12:26:24;13.63;;;9.13;;
70455;SDS011;57916;51.996;5.180;2023-12-04T12:28:51;14.18;;;8.75;;
70455;SDS011;57916;51.996;5.180;2023-12-04T12:31:19;13.75;;;9.10;;
70455;SDS011;57916;51.996;5.180;2023-12-04T12:33:45;14.02;;;8.77;;
70455;SDS011;57916;51.996;5.180;2023-12-04T12:36:13;14.93;;;8.57;;
70455;SDS011;57916;51.996;5.180;2023-12-04T12:38:41;13.02;;;8.82;;
70455;SDS011;57916;51.996;5.180;2023-12-04T12:41:08;12.60;;;7.65;;
70455;SDS011;57916;51.996;5.180;2023-12-04T12:43:37;14.18;;;8.70;;
70455;SDS011;57916;51.996;5.180;2023-12-04T12:46:04;17.35;;;8.13;;
70455;SDS011;57916;51.996;5.180;2023-12-04T12:48:32;13.10;;;8.80;;
70455;SDS011;57916;51.996;5.180;2023-12-04T12:51:03;14.23;;;8.50;;
70455;SDS011;57916;51.996;5.180;2023-12-04T12:53:32;13.68;;;8.52;;
70455;SDS011;57916;51.996;5.180;2023-12-04T12:56:00;18.42;;;9.15;;
70455;SDS011;57916;51.996;5.180;2023-12-04T12:58:28;12.43;;;8.57;;
70455;SDS011;57916;51.996;5.180;2023-12-04T13:00:55;14.07;;;9.30;;
70455;SDS011;57916;51.996;5.180;2023-12-04T13:03:22;15.32;;;9.15;;
70455;SDS011;57916;51.996;5.180;2023-12-04T13:05:49;12.50;;;8.50;;
70455;SDS011;57916;51.996;5.180;2023-12-04T13:08:16;9.30;;;6.57;;
70455;SDS011;57916;51.996;5.180;2023-12-04T13:10:43;14.10;;;9.02;;
70455;SDS011;57916;51.996;5.180;2023-12-04T13:13:11;13.18;;;8.55;;
70455;SDS011;57916;51.996;5.180;2023-12-04T13:15:39;12.05;;;8.50;;
70455;SDS011;57916;51.996;5.180;2023-12-04T13:18:09;14.23;;;8.43;;
70455;SDS011;57916;51.996;5.180;2023-12-04T13:20:36;13.73;;;8.98;;
70455;SDS011;57916;51.996;5.180;2023-12-04T13:23:03;15.27;;;9.48;;
70455;SDS011;57916;51.996;5.180;2023-12-04T13:25:30;10.82;;;6.93;;
70455;SDS011;57916;51.996;5.180;2023-12-04T13:27:58;12.93;;;8.73;;
70455;SDS011;57916;51.996;5.180;2023-12-04T13:30:25;16.17;;;8.82;;
70455;SDS011;57916;51.996;5.180;2023-12-04T13:32:52;12.68;;;8.25;;
70455;SDS011;57916;51.996;5.180;2023-12-04T13:35:19;16.20;;;8.57;;
70455;SDS011;57916;51.996;5.180;2023-12-04T13:37:46;13.25;;;8.70;;
70455;SDS011;57916;51.996;5.180;2023-12-04T13:40:20;15.70;;;8.63;;
70455;SDS011;57916;51.996;5.180;2023-12-04T13:42:48;15.38;;;8.63;;
70455;SDS011;57916;51.996;5.180;2023-12-04T13:45:33;14.10;;;8.88;;
70455;SDS011;57916;51.996;5.180;2023-12-04T13:48:01;13.30;;;8.93;;
70455;SDS011;57916;51.996;5.180;2023-12-04T13:50:29;15.15;;;9.25;;
70455;SDS011;57916;51.996;5.180;2023-12-04T13:52:56;12.68;;;8.32;;
70455;SDS011;57916;51.996;5.180;2023-12-04T13:55:24;16.77;;;10.52;;
70455;SDS011;57916;51.996;5.180;2023-12-04T13:58:17;15.27;;;7.85;;
70455;SDS011;57916;51.996;5.180;2023-12-04T14:01:04;14.43;;;8.90;;
70455;SDS011;57916;51.996;5.180;2023-12-04T14:03:43;13.68;;;7.85;;
70455;SDS011;57916;51.996;5.180;2023-12-04T14:06:11;14.55;;;8.38;;
70455;SDS011;57916;51.996;5.180;2023-12-04T14:08:39;16.85;;;9.30;;
70455;SDS011;57916;51.996;5.180;2023-12-04T14:11:06;14.73;;;9.15;;
70455;SDS011;57916;51.996;5.180;2023-12-04T14:13:33;13.30;;;7.93;;
70455;SDS011;57916;51.996;5.180;2023-12-04T14:16:02;15.73;;;8.93;;
70455;SDS011;57916;51.996;5.180;2023-12-04T14:18:30;14.02;;;8.07;;
70455;SDS011;57916;51.996;5.180;2023-12-04T14:20:57;11.70;;;8.32;;
70455;SDS011;57916;51.996;5.180;2023-12-04T14:23:24;13.38;;;8.32;;
70455;SDS011;57916;51.996;5.180;2023-12-04T14:25:51;14.18;;;9.00;;
70455;SDS011;57916;51.996;5.180;2023-12-04T14:28:18;13.23;;;8.27;;
70455;SDS011;57916;51.996;5.180;2023-12-04T14:30:54;13.32;;;8.27;;
70455;SDS011;57916;51.996;5.180;2023-12-04T14:33:22;15.00;;;8.73;;
70455;SDS011;57916;51.996;5.180;2023-12-04T14:35:49;16.65;;;8.75;;
70455;SDS011;57916;51.996;5.180;2023-12-04T14:38:17;20.08;;;8.90;;
70455;SDS011;57916;51.996;5.180;2023-12-04T14:40:43;12.38;;;8.60;;
70455;SDS011;57916;51.996;5.180;2023-12-04T14:43:11;13.45;;;8.20;;